sensor_id;sensor_type;location;lat;lon;timestamp;P1;durP1;ratioP1;P2;durP2;ratioP2
10090;SDS011;5084;51.386;6.778;2024-01-30T00:02:08;8.53;;;4.90;;
10090;SDS011;5084;51.386;6.778;2024-01-30T00:04:34;5.43;;;4.90;;
10090;SDS011;5084;51.386;6.778;2024-01-30T00:07:00;6.90;;;5.43;;
10090;SDS011;5084;51.386;6.778;2024-01-30T00:09:26;5.20;;;4.63;;
10090;SDS011;5084;51.386;6.778;2024-01-30T00:11:52;7.10;;;5.37;;
10090;SDS011;5084;51.386;6.778;2024-01-30T00:14:18;5.30;;;4.80;;
10090;SDS011;5084;51.386;6.778;2024-01-30T00:16:44;5.03;;;4.53;;
10090;SDS011;5084;51.386;6.778;2024-01-30T00:19:11;6.93;;;5.07;;
10090;SDS011;5084;51.386;6.778;2024-01-30T00:21:37;8.47;;;5.30;;
10090;SDS011;5084;51.386;6.778;2024-01-30T00:24:03;7.57;;;4.97;;
10090;SDS011;5084;51.386;6.778;2024-01-30T00:26:29;8.30;;;5.30;;
10090;SDS011;5084;51.386;6.778;2024-01-30T00:28:55;7.73;;;5.37;;
10090;SDS011;5084;51.386;6.778;2024-01-30T00:31:21;5.03;;;4.30;;
10090;SDS011;5084;51.386;6.778;2024-01-30T00:33:47;5.53;;;5.03;;
10090;SDS011;5084;51.386;6.778;2024-01-30T00:36:13;6.00;;;5.30;;
10090;SDS011;5084;51.386;6.778;2024-01-30T00:38:39;5.13;;;4.63;;
10090;SDS011;5084;51.386;6.778;2024-01-30T00:41:06;5.47;;;4.93;;
10090;SDS011;5084;51.386;6.778;2024-01-30T00:43:32;5.83;;;5.13;;
10090;SDS011;5084;51.386;6.778;2024-01-30T00:48:24;6.97;;;5.33;;
10090;SDS011;5084;51.386;6.778;2024-01-30T00:50:50;5.23;;;4.73;;
10090;SDS011;5084;51.386;6.778;2024-01-30T00:53:16;5.57;;;5.03;;
10090;SDS011;5084;51.386;6.778;2024-01-30T00:55:43;7.53;;;5.97;;
10090;SDS011;5084;51.386;6.778;2024-01-30T00:58:09;6.17;;;5.50;;
10090;SDS011;5084;51.386;6.778;2024-01-30T01:00:35;6.00;;;5.37;;
10090;SDS011;5084;51.386;6.778;2024-01-30T01:03:02;5.67;;;4.97;;
10090;SDS011;5084;51.386;6.778;2024-01-30T01:05:28;6.60;;;4.83;;
10090;SDS011;5084;51.386;6.778;2024-01-30T01:07:54;5.07;;;4.57;;
10090;SDS011;5084;51.386;6.778;2024-01-30T01:10:20;7.23;;;5.37;;
10090;SDS011;5084;51.386;6.778;2024-01-30T01:12:47;5.53;;;4.80;;
10090;SDS011;5084;51.386;6.778;2024-01-30T01:15:13;6.23;;;5.20;;
10090;SDS011;5084;51.386;6.778;2024-01-30T01:17:40;8.03;;;5.60;;
10090;SDS011;5084;51.386;6.778;2024-01-30T04:03:28;5.17;;;4.53;;
10090;SDS011;5084;51.386;6.778;2024-01-30T04:05:54;7.27;;;5.80;;
10090;SDS011;5084;51.386;6.778;2024-01-30T04:08:20;6.20;;;5.40;;
10090;SDS011;5084;51.386;6.778;2024-01-30T04:10:46;11.00;;;5.37;;
10090;SDS011;5084;51.386;6.778;2024-01-30T04:13:13;5.30;;;4.80;;
10090;SDS011;5084;51.386;6.778;2024-01-30T04:15:39;7.17;;;5.27;;
10090;SDS011;5084;51.386;6.778;2024-01-30T04:18:05;6.30;;;5.40;;
10090;SDS011;5084;51.386;6.778;2024-01-30T04:20:31;8.13;;;5.60;;
10090;SDS011;5084;51.386;6.778;2024-01-30T04:22:57;4.73;;;4.33;;
10090;SDS011;5084;51.386;6.778;2024-01-30T04:25:23;6.17;;;5.13;;
10090;SDS011;5084;51.386;6.778;2024-01-30T04:27:49;6.33;;;5.03;;
10090;SDS011;5084;51.386;6.778;2024-01-30T04:30:15;6.43;;;4.70;;
10090;SDS011;5084;51.386;6.778;2024-01-30T04:32:42;5.53;;;4.93;;
10090;SDS011;5084;51.386;6.778;2024-01-30T04:35:08;6.73;;;4.97;;
10090;SDS011;5084;51.386;6.778;2024-01-30T04:37:34;5.90;;;5.40;;
10090;SDS011;5084;51.386;6.778;2024-01-30T04:40:00;6.80;;;4.87;;
10090;SDS011;5084;51.386;6.778;2024-01-30T04:42:27;9.47;;;5.80;;
10090;SDS011;5084;51.386;6.778;2024-01-30T04:44:53;5.83;;;4.93;;
10090;SDS011;5084;51.386;6.778;2024-01-30T04:47:19;6.20;;;5.17;;
10090;SDS011;5084;51.386;6.778;2024-01-30T04:49:46;8.63;;;5.23;;
10090;SDS011;5084;51.386;6.778;2024-01-30T04:52:12;5.87;;;4.80;;
10090;SDS011;5084;51.386;6.778;2024-01-30T04:54:38;6.57;;;5.27;;
10090;SDS011;5084;51.386;6.778;2024-01-30T04:57:04;6.73;;;5.30;;
10090;SDS011;5084;51.386;6.778;2024-01-30T04:59:34;7.90;;;5.40;;
10090;SDS011;5084;51.386;6.778;2024-01-30T05:02:00;6.67;;;5.37;;
10090;SDS011;5084;51.386;6.778;2024-01-30T05:04:26;5.83;;;4.77;;
10090;SDS011;5084;51.386;6.778;2024-01-30T05:06:52;6.47;;;5.10;;
10090;SDS011;5084;51.386;6.778;2024-01-30T05:09:18;6.57;;;5.30;;
10090;SDS011;5084;51.386;6.778;2024-01-30T05:11:45;6.60;;;5.10;;
10090;SDS011;5084;51.386;6.778;2024-01-30T05:14:11;9.10;;;5.40;;
10090;SDS011;5084;51.386;6.778;2024-01-30T05:16:37;7.13;;;5.33;;
10090;SDS011;5084;51.386;6.778;2024-01-30T05:19:03;7.30;;;5.40;;
10090;SDS011;5084;51.386;6.778;2024-01-30T05:21:29;6.67;;;4.87;;
10090;SDS011;5084;51.386;6.778;2024-01-30T05:23:55;7.57;;;4.93;;
10090;SDS011;5084;51.386;6.778;2024-01-30T05:26:21;6.30;;;4.90;;
10090;SDS011;5084;51.386;6.778;2024-01-30T05:28:48;7.37;;;5.20;;
10090;SDS011;5084;51.386;6.778;2024-01-30T05:31:14;5.87;;;4.43;;
10090;SDS011;5084;51.386;6.778;2024-01-30T05:33:40;6.77;;;4.63;;
10090;SDS011;5084;51.386;6.778;2024-01-30T05:36:06;6.13;;;4.87;;
10090;SDS011;5084;51.386;6.778;2024-01-30T05:38:32;6.47;;;5.47;;
10090;SDS011;5084;51.386;6.778;2024-01-30T05:40:58;5.33;;;4.80;;
10090;SDS011;5084;51.386;6.778;2024-01-30T05:43:24;6.67;;;5.13;;
10090;SDS011;5084;51.386;6.778;2024-01-30T05:45:50;5.77;;;4.90;;
10090;SDS011;5084;51.386;6.778;2024-01-30T05:48:18;7.73;;;5.23;;
10090;SDS011;5084;51.386;6.778;2024-01-30T05:50:44;5.13;;;4.50;;
10090;SDS011;5084;51.386;6.778;2024-01-30T05:53:10;5.60;;;4.50;;
10090;SDS011;5084;51.386;6.778;2024-01-30T05:55:36;5.97;;;4.63;;
10090;SDS011;5084;51.386;6.778;2024-01-30T05:58:02;6.17;;;4.50;;
10090;SDS011;5084;51.386;6.778;2024-01-30T06:00:29;5.77;;;4.60;;
10090;SDS011;5084;51.386;6.778;2024-01-30T06:02:55;7.00;;;4.30;;
10090;SDS011;5084;51.386;6.778;2024-01-30T06:05:21;6.00;;;4.60;;
10090;SDS011;5084;51.386;6.778;2024-01-30T06:07:47;5.63;;;4.53;;
10090;SDS011;5084;51.386;6.778;2024-01-30T06:10:13;6.37;;;4.17;;
10090;SDS011;5084;51.386;6.778;2024-01-30T06:12:39;4.90;;;4.30;;
10090;SDS011;5084;51.386;6.778;2024-01-30T06:15:05;6.43;;;4.90;;
10090;SDS011;5084;51.386;6.778;2024-01-30T06:17:31;4.90;;;4.40;;
10090;SDS011;5084;51.386;6.778;2024-01-30T06:19:58;5.67;;;4.73;;
10090;SDS011;5084;51.386;6.778;2024-01-30T06:22:24;6.37;;;4.50;;
10090;SDS011;5084;51.386;6.778;2024-01-30T06:24:50;5.10;;;4.30;;
10090;SDS011;5084;51.386;6.778;2024-01-30T06:27:16;5.83;;;4.50;;
10090;SDS011;5084;51.386;6.778;2024-01-30T06:29:43;7.03;;;4.80;;
10090;SDS011;5084;51.386;6.778;2024-01-30T06:32:09;6.07;;;4.77;;
10090;SDS011;5084;51.386;6.778;2024-01-30T06:34:35;5.00;;;4.50;;
10090;SDS011;5084;51.386;6.778;2024-01-30T06:37:01;4.97;;;4.47;;
10090;SDS011;5084;51.386;6.778;2024-01-30T06:39:27;5.00;;;4.53;;
10090;SDS011;5084;51.386;6.778;2024-01-30T06:41:53;4.83;;;4.43;;
10090;SDS011;5084;51.386;6.778;2024-01-30T06:44:19;4.77;;;4.27;;
10090;SDS011;5084;51.386;6.778;2024-01-30T08:07:04;5.13;;;4.63;;
10090;SDS011;5084;51.386;6.778;2024-01-30T08:09:30;6.43;;;5.00;;
10090;SDS011;5084;51.386;6.778;2024-01-30T08:11:56;5.00;;;4.50;;
10090;SDS011;5084;51.386;6.778;2024-01-30T08:14:22;6.50;;;5.00;;
10090;SDS011;5084;51.386;6.778;2024-01-30T08:16:48;6.07;;;4.57;;
10090;SDS011;5084;51.386;6.778;2024-01-30T08:19:15;7.50;;;5.20;;
10090;SDS011;5084;51.386;6.778;2024-01-30T08:21:41;5.67;;;4.70;;
10090;SDS011;5084;51.386;6.778;2024-01-30T08:24:07;6.60;;;4.80;;
10090;SDS011;5084;51.386;6.778;2024-01-30T08:26:33;5.77;;;4.93;;
10090;SDS011;5084;51.386;6.778;2024-01-30T08:29:00;6.90;;;4.65;;
10090;SDS011;5084;51.386;6.778;2024-01-30T08:31:26;5.67;;;4.63;;
10090;SDS011;5084;51.386;6.778;2024-01-30T08:33:52;6.83;;;4.97;;
10090;SDS011;5084;51.386;6.778;2024-01-30T08:36:18;6.37;;;5.23;;
10090;SDS011;5084;51.386;6.778;2024-01-30T08:38:44;5.50;;;4.87;;
10090;SDS011;5084;51.386;6.778;2024-01-30T08:41:10;5.10;;;4.67;;
10090;SDS011;5084;51.386;6.778;2024-01-30T08:43:36;5.97;;;4.93;;
10090;SDS011;5084;51.386;6.778;2024-01-30T08:46:02;5.77;;;5.00;;
10090;SDS011;5084;51.386;6.778;2024-01-30T08:48:28;5.37;;;4.70;;
10090;SDS011;5084;51.386;6.778;2024-01-30T08:50:54;7.20;;;5.13;;
10090;SDS011;5084;51.386;6.778;2024-01-30T08:53:20;6.60;;;5.25;;
10090;SDS011;5084;51.386;6.778;2024-01-30T08:55:46;7.40;;;4.87;;
10090;SDS011;5084;51.386;6.778;2024-01-30T08:58:12;5.73;;;5.13;;
10090;SDS011;5084;51.386;6.778;2024-01-30T09:00:38;5.60;;;4.57;;
10090;SDS011;5084;51.386;6.778;2024-01-30T09:03:04;8.77;;;5.90;;
10090;SDS011;5084;51.386;6.778;2024-01-30T09:05:30;5.10;;;4.60;;
10090;SDS011;5084;51.386;6.778;2024-01-30T09:07:56;7.23;;;5.43;;
10090;SDS011;5084;51.386;6.778;2024-01-30T09:10:22;6.03;;;5.10;;
10090;SDS011;5084;51.386;6.778;2024-01-30T09:12:48;5.83;;;4.87;;
10090;SDS011;5084;51.386;6.778;2024-01-30T09:15:15;5.90;;;5.30;;
10090;SDS011;5084;51.386;6.778;2024-01-30T09:17:41;7.93;;;5.43;;
10090;SDS011;5084;51.386;6.778;2024-01-30T09:20:07;6.30;;;5.30;;
10090;SDS011;5084;51.386;6.778;2024-01-30T09:22:34;6.00;;;4.87;;
10090;SDS011;5084;51.386;6.778;2024-01-30T09:25:00;8.40;;;5.73;;
10090;SDS011;5084;51.386;6.778;2024-01-30T09:27:26;5.93;;;4.70;;
10090;SDS011;5084;51.386;6.778;2024-01-30T09:29:52;6.63;;;5.07;;
10090;SDS011;5084;51.386;6.778;2024-01-30T09:32:18;5.07;;;4.67;;
10090;SDS011;5084;51.386;6.778;2024-01-30T09:34:44;10.90;;;5.50;;
10090;SDS011;5084;51.386;6.778;2024-01-30T09:37:10;6.33;;;4.90;;
10090;SDS011;5084;51.386;6.778;2024-01-30T09:39:36;6.80;;;5.20;;
10090;SDS011;5084;51.386;6.778;2024-01-30T09:42:05;6.77;;;5.60;;
10090;SDS011;5084;51.386;6.778;2024-01-30T09:44:34;7.50;;;5.30;;
10090;SDS011;5084;51.386;6.778;2024-01-30T09:47:01;7.30;;;5.13;;
10090;SDS011;5084;51.386;6.778;2024-01-30T09:49:31;6.10;;;4.90;;
10090;SDS011;5084;51.386;6.778;2024-01-30T09:51:58;6.07;;;5.27;;
10090;SDS011;5084;51.386;6.778;2024-01-30T09:54:24;6.07;;;5.47;;
10090;SDS011;5084;51.386;6.778;2024-01-30T09:56:50;6.37;;;5.77;;
10090;SDS011;5084;51.386;6.778;2024-01-30T09:59:16;8.43;;;5.70;;
10090;SDS011;5084;51.386;6.778;2024-01-30T10:01:42;5.30;;;4.80;;
10090;SDS011;5084;51.386;6.778;2024-01-30T10:04:08;8.13;;;5.60;;
10090;SDS011;5084;51.386;6.778;2024-01-30T10:06:34;7.53;;;5.63;;
10090;SDS011;5084;51.386;6.778;2024-01-30T10:09:01;6.83;;;5.57;;
10090;SDS011;5084;51.386;6.778;2024-01-30T10:11:27;6.10;;;5.00;;
10090;SDS011;5084;51.386;6.778;2024-01-30T10:13:53;7.33;;;5.60;;
10090;SDS011;5084;51.386;6.778;2024-01-30T10:16:19;8.50;;;5.33;;
10090;SDS011;5084;51.386;6.778;2024-01-30T10:18:45;8.17;;;6.07;;
10090;SDS011;5084;51.386;6.778;2024-01-30T10:21:12;7.67;;;5.07;;
10090;SDS011;5084;51.386;6.778;2024-01-30T10:23:38;9.97;;;5.77;;
10090;SDS011;5084;51.386;6.778;2024-01-30T10:26:04;6.70;;;5.30;;
10090;SDS011;5084;51.386;6.778;2024-01-30T10:28:30;7.37;;;5.60;;
10090;SDS011;5084;51.386;6.778;2024-01-30T10:30:57;6.00;;;5.23;;
10090;SDS011;5084;51.386;6.778;2024-01-30T10:33:24;7.50;;;6.23;;
10090;SDS011;5084;51.386;6.778;2024-01-30T10:35:50;6.83;;;5.97;;
10090;SDS011;5084;51.386;6.778;2024-01-30T10:38:16;7.80;;;5.90;;
10090;SDS011;5084;51.386;6.778;2024-01-30T10:40:45;8.87;;;5.80;;
10090;SDS011;5084;51.386;6.778;2024-01-30T10:43:12;9.50;;;7.07;;
10090;SDS011;5084;51.386;6.778;2024-01-30T10:45:40;7.87;;;6.10;;
10090;SDS011;5084;51.386;6.778;2024-01-30T10:48:10;9.37;;;5.80;;
10090;SDS011;5084;51.386;6.778;2024-01-30T10:50:37;6.27;;;5.30;;
10090;SDS011;5084;51.386;6.778;2024-01-30T10:53:04;7.13;;;6.43;;
10090;SDS011;5084;51.386;6.778;2024-01-30T10:55:30;10.80;;;5.83;;
10090;SDS011;5084;51.386;6.778;2024-01-30T10:57:57;7.60;;;5.80;;
10090;SDS011;5084;51.386;6.778;2024-01-30T11:00:24;10.07;;;6.63;;
10090;SDS011;5084;51.386;6.778;2024-01-30T11:02:51;8.80;;;6.10;;
10090;SDS011;5084;51.386;6.778;2024-01-30T11:05:24;6.73;;;6.03;;
10090;SDS011;5084;51.386;6.778;2024-01-30T11:07:54;7.13;;;6.33;;
10090;SDS011;5084;51.386;6.778;2024-01-30T11:10:20;12.17;;;6.00;;
10090;SDS011;5084;51.386;6.778;2024-01-30T11:12:46;7.10;;;5.63;;
10090;SDS011;5084;51.386;6.778;2024-01-30T11:15:13;7.33;;;6.10;;
10090;SDS011;5084;51.386;6.778;2024-01-30T11:17:43;6.60;;;5.90;;
10090;SDS011;5084;51.386;6.778;2024-01-30T11:20:09;9.23;;;6.00;;
10090;SDS011;5084;51.386;6.778;2024-01-30T11:22:36;8.80;;;6.03;;
10090;SDS011;5084;51.386;6.778;2024-01-30T11:25:03;7.97;;;6.37;;
10090;SDS011;5084;51.386;6.778;2024-01-30T11:27:30;7.03;;;5.93;;
10090;SDS011;5084;51.386;6.778;2024-01-30T11:30:03;6.87;;;5.70;;
10090;SDS011;5084;51.386;6.778;2024-01-30T11:32:29;8.07;;;5.80;;
10090;SDS011;5084;51.386;6.778;2024-01-30T11:34:55;8.23;;;5.87;;
10090;SDS011;5084;51.386;6.778;2024-01-30T11:37:21;7.87;;;5.87;;
10090;SDS011;5084;51.386;6.778;2024-01-30T11:39:51;7.57;;;6.20;;
10090;SDS011;5084;51.386;6.778;2024-01-30T11:42:17;8.67;;;6.70;;
10090;SDS011;5084;51.386;6.778;2024-01-30T11:44:46;7.27;;;6.33;;
10090;SDS011;5084;51.386;6.778;2024-01-30T11:47:13;7.80;;;6.03;;
10090;SDS011;5084;51.386;6.778;2024-01-30T11:49:40;9.97;;;6.13;;
10090;SDS011;5084;51.386;6.778;2024-01-30T11:52:06;6.53;;;5.70;;
10090;SDS011;5084;51.386;6.778;2024-01-30T11:54:32;6.90;;;6.20;;
10090;SDS011;5084;51.386;6.778;2024-01-30T11:56:58;8.87;;;5.97;;
10090;SDS011;5084;51.386;6.778;2024-01-30T11:59:24;7.13;;;5.93;;
10090;SDS011;5084;51.386;6.778;2024-01-30T12:01:51;9.53;;;6.43;;
10090;SDS011;5084;51.386;6.778;2024-01-30T12:04:17;8.00;;;5.57;;
10090;SDS011;5084;51.386;6.778;2024-01-30T12:06:43;7.93;;;5.47;;
10090;SDS011;5084;51.386;6.778;2024-01-30T12:09:09;8.80;;;5.87;;
10090;SDS011;5084;51.386;6.778;2024-01-30T12:11:44;6.67;;;5.73;;
10090;SDS011;5084;51.386;6.778;2024-01-30T12:14:11;10.67;;;5.93;;
10090;SDS011;5084;51.386;6.778;2024-01-30T12:16:37;9.87;;;6.47;;
10090;SDS011;5084;51.386;6.778;2024-01-30T12:19:03;10.07;;;6.53;;
10090;SDS011;5084;51.386;6.778;2024-01-30T12:21:29;9.40;;;5.87;;
10090;SDS011;5084;51.386;6.778;2024-01-30T12:23:58;6.43;;;5.80;;
10090;SDS011;5084;51.386;6.778;2024-01-30T12:26:25;9.33;;;5.60;;
10090;SDS011;5084;51.386;6.778;2024-01-30T12:28:54;10.03;;;7.53;;
10090;SDS011;5084;51.386;6.778;2024-01-30T12:31:31;8.50;;;5.65;;
10090;SDS011;5084;51.386;6.778;2024-01-30T12:33:59;8.57;;;5.90;;
10090;SDS011;5084;51.386;6.778;2024-01-30T12:36:25;8.00;;;5.83;;
10090;SDS011;5084;51.386;6.778;2024-01-30T12:38:51;7.93;;;6.30;;
10090;SDS011;5084;51.386;6.778;2024-01-30T12:41:18;7.40;;;5.73;;
10090;SDS011;5084;51.386;6.778;2024-01-30T12:43:45;8.27;;;6.40;;
10090;SDS011;5084;51.386;6.778;2024-01-30T12:46:12;8.20;;;5.73;;
10090;SDS011;5084;51.386;6.778;2024-01-30T12:48:38;9.53;;;5.97;;
10090;SDS011;5084;51.386;6.778;2024-01-30T12:51:04;11.20;;;6.37;;
10090;SDS011;5084;51.386;6.778;2024-01-30T12:53:30;8.27;;;6.27;;
10090;SDS011;5084;51.386;6.778;2024-01-30T12:55:56;10.23;;;6.57;;
10090;SDS011;5084;51.386;6.778;2024-01-30T12:58:22;7.60;;;6.20;;
10090;SDS011;5084;51.386;6.778;2024-01-30T13:00:48;8.70;;;5.90;;
10090;SDS011;5084;51.386;6.778;2024-01-30T13:03:14;7.03;;;6.23;;
10090;SDS011;5084;51.386;6.778;2024-01-30T13:05:41;10.30;;;5.70;;
10090;SDS011;5084;51.386;6.778;2024-01-30T13:08:07;8.80;;;5.80;;
10090;SDS011;5084;51.386;6.778;2024-01-30T13:10:33;8.53;;;6.63;;
10090;SDS011;5084;51.386;6.778;2024-01-30T13:12:59;7.67;;;5.73;;
10090;SDS011;5084;51.386;6.778;2024-01-30T13:15:25;7.37;;;5.33;;
10090;SDS011;5084;51.386;6.778;2024-01-30T13:17:51;7.53;;;5.33;;
10090;SDS011;5084;51.386;6.778;2024-01-30T13:20:19;10.37;;;5.93;;
10090;SDS011;5084;51.386;6.778;2024-01-30T13:22:47;10.87;;;6.00;;
10090;SDS011;5084;51.386;6.778;2024-01-30T13:25:16;5.77;;;5.23;;
10090;SDS011;5084;51.386;6.778;2024-01-30T13:27:42;5.57;;;4.60;;
10090;SDS011;5084;51.386;6.778;2024-01-30T13:30:08;6.73;;;5.07;;
10090;SDS011;5084;51.386;6.778;2024-01-30T13:32:35;7.70;;;4.90;;
10090;SDS011;5084;51.386;6.778;2024-01-30T13:35:01;6.00;;;5.23;;
10090;SDS011;5084;51.386;6.778;2024-01-30T13:37:27;6.50;;;5.33;;
10090;SDS011;5084;51.386;6.778;2024-01-30T13:39:53;7.90;;;5.73;;
10090;SDS011;5084;51.386;6.778;2024-01-30T13:42:19;5.60;;;4.90;;
10090;SDS011;5084;51.386;6.778;2024-01-30T13:44:45;6.50;;;4.97;;
10090;SDS011;5084;51.386;6.778;2024-01-30T13:47:11;6.80;;;5.27;;
10090;SDS011;5084;51.386;6.778;2024-01-30T13:49:37;7.10;;;5.07;;
10090;SDS011;5084;51.386;6.778;2024-01-30T13:52:03;7.37;;;4.73;;
10090;SDS011;5084;51.386;6.778;2024-01-30T13:54:29;7.00;;;4.37;;
10090;SDS011;5084;51.386;6.778;2024-01-30T13:56:56;6.10;;;4.53;;
10090;SDS011;5084;51.386;6.778;2024-01-30T13:59:22;6.57;;;4.53;;
10090;SDS011;5084;51.386;6.778;2024-01-30T14:01:50;5.60;;;4.43;;
10090;SDS011;5084;51.386;6.778;2024-01-30T14:04:16;5.73;;;5.07;;
10090;SDS011;5084;51.386;6.778;2024-01-30T14:06:42;7.50;;;5.43;;
10090;SDS011;5084;51.386;6.778;2024-01-30T14:09:08;7.80;;;4.97;;
10090;SDS011;5084;51.386;6.778;2024-01-30T14:11:35;10.90;;;5.60;;
10090;SDS011;5084;51.386;6.778;2024-01-30T14:14:01;6.30;;;5.10;;
10090;SDS011;5084;51.386;6.778;2024-01-30T14:16:28;6.50;;;4.63;;
10090;SDS011;5084;51.386;6.778;2024-01-30T14:18:54;7.37;;;5.30;;
10090;SDS011;5084;51.386;6.778;2024-01-30T14:21:20;6.27;;;4.93;;
10090;SDS011;5084;51.386;6.778;2024-01-30T14:23:46;5.87;;;4.77;;
10090;SDS011;5084;51.386;6.778;2024-01-30T14:26:12;8.80;;;4.93;;
10090;SDS011;5084;51.386;6.778;2024-01-30T14:28:38;6.57;;;5.03;;
10090;SDS011;5084;51.386;6.778;2024-01-30T14:31:04;5.83;;;5.23;;
10090;SDS011;5084;51.386;6.778;2024-01-30T14:33:30;7.53;;;6.10;;
10090;SDS011;5084;51.386;6.778;2024-01-30T14:35:56;9.97;;;6.13;;
10090;SDS011;5084;51.386;6.778;2024-01-30T14:38:23;7.57;;;6.27;;
10090;SDS011;5084;51.386;6.778;2024-01-30T14:40:50;9.07;;;7.00;;
10090;SDS011;5084;51.386;6.778;2024-01-30T14:43:16;12.40;;;8.07;;
10090;SDS011;5084;51.386;6.778;2024-01-30T14:45:42;11.37;;;7.17;;
10090;SDS011;5084;51.386;6.778;2024-01-30T14:48:11;10.03;;;7.13;;
10090;SDS011;5084;51.386;6.778;2024-01-30T14:50:37;9.10;;;7.73;;
10090;SDS011;5084;51.386;6.778;2024-01-30T14:53:03;11.77;;;8.70;;
10090;SDS011;5084;51.386;6.778;2024-01-30T14:55:29;18.07;;;9.70;;
10090;SDS011;5084;51.386;6.778;2024-01-30T14:57:55;11.97;;;9.03;;
10090;SDS011;5084;51.386;6.778;2024-01-30T15:00:21;12.52;;;9.80;;
10090;SDS011;5084;51.386;6.778;2024-01-30T15:02:47;11.47;;;8.97;;
10090;SDS011;5084;51.386;6.778;2024-01-30T15:05:13;12.03;;;8.07;;
10090;SDS011;5084;51.386;6.778;2024-01-30T15:07:39;8.43;;;7.00;;
10090;SDS011;5084;51.386;6.778;2024-01-30T15:10:06;10.53;;;7.30;;
10090;SDS011;5084;51.386;6.778;2024-01-30T15:12:32;9.63;;;7.73;;
10090;SDS011;5084;51.386;6.778;2024-01-30T15:14:58;11.13;;;7.23;;
10090;SDS011;5084;51.386;6.778;2024-01-30T15:17:24;11.50;;;7.57;;
10090;SDS011;5084;51.386;6.778;2024-01-30T15:19:50;6.93;;;5.73;;
10090;SDS011;5084;51.386;6.778;2024-01-30T15:22:16;6.97;;;6.23;;
10090;SDS011;5084;51.386;6.778;2024-01-30T15:24:42;6.57;;;5.93;;
10090;SDS011;5084;51.386;6.778;2024-01-30T15:27:08;12.90;;;5.30;;
10090;SDS011;5084;51.386;6.778;2024-01-30T15:29:34;7.80;;;4.65;;
10090;SDS011;5084;51.386;6.778;2024-01-30T15:32:00;6.87;;;4.70;;
10090;SDS011;5084;51.386;6.778;2024-01-30T15:34:27;7.60;;;4.70;;
10090;SDS011;5084;51.386;6.778;2024-01-30T15:36:53;6.73;;;5.00;;
10090;SDS011;5084;51.386;6.778;2024-01-30T15:39:19;5.70;;;4.00;;
10090;SDS011;5084;51.386;6.778;2024-01-30T15:41:45;4.27;;;3.80;;
10090;SDS011;5084;51.386;6.778;2024-01-30T15:44:12;4.63;;;3.13;;
10090;SDS011;5084;51.386;6.778;2024-01-30T15:46:38;4.87;;;2.90;;
10090;SDS011;5084;51.386;6.778;2024-01-30T15:49:04;7.30;;;3.17;;
10090;SDS011;5084;51.386;6.778;2024-01-30T15:51:31;4.40;;;2.63;;
10090;SDS011;5084;51.386;6.778;2024-01-30T15:53:57;4.13;;;2.50;;
10090;SDS011;5084;51.386;6.778;2024-01-30T15:56:23;3.83;;;2.80;;
10090;SDS011;5084;51.386;6.778;2024-01-30T15:58:50;2.97;;;2.67;;
10090;SDS011;5084;51.386;6.778;2024-01-30T16:01:17;3.93;;;2.23;;
10090;SDS011;5084;51.386;6.778;2024-01-30T16:03:43;2.43;;;2.00;;
10090;SDS011;5084;51.386;6.778;2024-01-30T16:06:10;4.75;;;2.50;;
10090;SDS011;5084;51.386;6.778;2024-01-30T16:08:36;2.50;;;2.13;;
10090;SDS011;5084;51.386;6.778;2024-01-30T16:11:02;3.93;;;2.10;;
10090;SDS011;5084;51.386;6.778;2024-01-30T16:13:28;2.67;;;2.07;;
10090;SDS011;5084;51.386;6.778;2024-01-30T16:15:55;3.73;;;1.60;;
10090;SDS011;5084;51.386;6.778;2024-01-30T16:18:21;3.73;;;1.97;;
10090;SDS011;5084;51.386;6.778;2024-01-30T16:20:47;1.90;;;1.80;;
10090;SDS011;5084;51.386;6.778;2024-01-30T16:23:13;3.40;;;1.93;;
10090;SDS011;5084;51.386;6.778;2024-01-30T16:25:39;2.03;;;1.73;;
10090;SDS011;5084;51.386;6.778;2024-01-30T16:28:05;2.43;;;1.50;;
10090;SDS011;5084;51.386;6.778;2024-01-30T16:30:31;2.73;;;1.60;;
10090;SDS011;5084;51.386;6.778;2024-01-30T16:32:57;3.20;;;2.03;;
10090;SDS011;5084;51.386;6.778;2024-01-30T16:35:24;3.77;;;1.60;;
10090;SDS011;5084;51.386;6.778;2024-01-30T16:37:50;1.43;;;1.30;;
10090;SDS011;5084;51.386;6.778;2024-01-30T16:40:16;4.30;;;1.63;;
10090;SDS011;5084;51.386;6.778;2024-01-30T16:42:42;2.47;;;1.63;;
10090;SDS011;5084;51.386;6.778;2024-01-30T16:45:08;5.03;;;1.70;;
10090;SDS011;5084;51.386;6.778;2024-01-30T16:47:34;3.77;;;1.50;;
10090;SDS011;5084;51.386;6.778;2024-01-30T16:50:00;2.20;;;1.63;;
10090;SDS011;5084;51.386;6.778;2024-01-30T16:52:26;1.33;;;1.23;;
10090;SDS011;5084;51.386;6.778;2024-01-30T16:54:53;5.37;;;2.50;;
10090;SDS011;5084;51.386;6.778;2024-01-30T16:57:19;3.23;;;2.10;;
10090;SDS011;5084;51.386;6.778;2024-01-30T16:59:45;2.47;;;2.10;;
10090;SDS011;5084;51.386;6.778;2024-01-30T17:02:11;5.03;;;2.10;;
10090;SDS011;5084;51.386;6.778;2024-01-30T17:04:37;4.13;;;1.70;;
10090;SDS011;5084;51.386;6.778;2024-01-30T17:07:03;3.73;;;1.93;;
10090;SDS011;5084;51.386;6.778;2024-01-30T17:09:29;3.93;;;2.50;;
10090;SDS011;5084;51.386;6.778;2024-01-30T17:11:57;2.90;;;1.97;;
10090;SDS011;5084;51.386;6.778;2024-01-30T17:14:25;4.67;;;2.10;;
10090;SDS011;5084;51.386;6.778;2024-01-30T17:16:53;3.33;;;1.80;;
10090;SDS011;5084;51.386;6.778;2024-01-30T17:19:19;2.80;;;1.80;;
10090;SDS011;5084;51.386;6.778;2024-01-30T17:21:45;4.07;;;1.97;;
10090;SDS011;5084;51.386;6.778;2024-01-30T17:24:11;3.37;;;2.00;;
10090;SDS011;5084;51.386;6.778;2024-01-30T17:26:40;3.27;;;1.50;;
10090;SDS011;5084;51.386;6.778;2024-01-30T17:29:06;3.30;;;1.90;;
10090;SDS011;5084;51.386;6.778;2024-01-30T17:31:32;2.07;;;1.77;;
10090;SDS011;5084;51.386;6.778;2024-01-30T17:33:58;4.50;;;1.90;;
10090;SDS011;5084;51.386;6.778;2024-01-30T17:36:24;2.23;;;1.77;;
10090;SDS011;5084;51.386;6.778;2024-01-30T17:38:50;4.43;;;2.20;;
10090;SDS011;5084;51.386;6.778;2024-01-30T17:41:16;1.63;;;1.53;;
10090;SDS011;5084;51.386;6.778;2024-01-30T17:43:42;2.33;;;1.90;;
10090;SDS011;5084;51.386;6.778;2024-01-30T17:46:09;4.63;;;2.17;;
10090;SDS011;5084;51.386;6.778;2024-01-30T17:48:35;1.83;;;1.73;;
10090;SDS011;5084;51.386;6.778;2024-01-30T17:51:02;2.00;;;1.77;;
10090;SDS011;5084;51.386;6.778;2024-01-30T17:53:28;1.60;;;1.50;;
10090;SDS011;5084;51.386;6.778;2024-01-30T17:55:54;3.20;;;2.00;;
10090;SDS011;5084;51.386;6.778;2024-01-30T17:58:21;3.57;;;1.40;;
10090;SDS011;5084;51.386;6.778;2024-01-30T18:00:47;1.73;;;1.63;;
10090;SDS011;5084;51.386;6.778;2024-01-30T18:03:13;3.60;;;2.00;;
10090;SDS011;5084;51.386;6.778;2024-01-30T18:05:39;2.50;;;1.80;;
10090;SDS011;5084;51.386;6.778;2024-01-30T18:08:05;1.30;;;1.20;;
10090;SDS011;5084;51.386;6.778;2024-01-30T18:10:31;4.47;;;2.20;;
10090;SDS011;5084;51.386;6.778;2024-01-30T18:12:57;2.30;;;1.70;;
10090;SDS011;5084;51.386;6.778;2024-01-30T18:15:26;2.10;;;1.60;;
10090;SDS011;5084;51.386;6.778;2024-01-30T18:17:59;3.47;;;1.90;;
10090;SDS011;5084;51.386;6.778;2024-01-30T18:20:25;1.97;;;1.60;;
10090;SDS011;5084;51.386;6.778;2024-01-30T18:22:51;2.37;;;1.90;;
10090;SDS011;5084;51.386;6.778;2024-01-30T18:25:17;2.27;;;1.80;;
10090;SDS011;5084;51.386;6.778;2024-01-30T18:27:43;4.33;;;1.90;;
10090;SDS011;5084;51.386;6.778;2024-01-30T18:30:11;3.33;;;2.27;;
10090;SDS011;5084;51.386;6.778;2024-01-30T18:32:37;4.53;;;2.07;;
10090;SDS011;5084;51.386;6.778;2024-01-30T18:35:03;2.07;;;1.70;;
10090;SDS011;5084;51.386;6.778;2024-01-30T18:37:29;4.00;;;2.40;;
10090;SDS011;5084;51.386;6.778;2024-01-30T18:39:55;2.13;;;1.93;;
10090;SDS011;5084;51.386;6.778;2024-01-30T18:42:22;4.37;;;2.87;;
10090;SDS011;5084;51.386;6.778;2024-01-30T18:44:48;7.70;;;3.30;;
10090;SDS011;5084;51.386;6.778;2024-01-30T18:47:14;6.33;;;3.53;;
10090;SDS011;5084;51.386;6.778;2024-01-30T18:49:40;7.57;;;3.97;;
10090;SDS011;5084;51.386;6.778;2024-01-30T18:52:06;5.37;;;4.07;;
10090;SDS011;5084;51.386;6.778;2024-01-30T18:54:32;5.90;;;4.17;;
10090;SDS011;5084;51.386;6.778;2024-01-30T18:56:58;7.17;;;4.20;;
10090;SDS011;5084;51.386;6.778;2024-01-30T18:59:24;6.43;;;4.10;;
10090;SDS011;5084;51.386;6.778;2024-01-30T19:01:50;5.50;;;3.60;;